Time;durP1;ratioP1;P1;durP2;ratioP2;P2;SDS_P1;SDS_P2;PMS_P1;PMS_P2;Temp;Humidity;BMP_temperature;BMP_pressure;BME280_temperature;BME280_humidity;BME280_pressure;Samples;Min_cycle;Max_cycle;Signal;HPM_P1;HPM_P2
2022/06/14 00:01:36;;;;;;;14.65;6.40;;;7.00;99.90;;;;;;4995853;28;20050;-77
2022/06/14 00:04:02;;;;;;;21.48;5.85;;;7.00;99.90;;;;;;4996093;28;20050;-77
2022/06/14 00:06:30;;;;;;;17.23;6.13;;;6.90;99.90;;;;;;4995988;28;20137;-77
2022/06/14 00:08:57;;;;;;;20.80;6.53;;;7.00;99.90;;;;;;4996173;28;20125;-77
2022/06/14 00:11:30;;;;;;;22.33;6.63;;;7.00;99.90;;;;;;4995974;28;20169;-77
2022/06/14 00:13:58;;;;;;;30.25;6.35;;;7.00;99.90;;;;;;4995801;28;20496;-76
2022/06/14 00:16:25;;;;;;;16.33;6.97;;;7.00;99.90;;;;;;4994522;28;20050;-77
2022/06/14 00:18:51;;;;;;;18.65;6.43;;;6.90;99.90;;;;;;4995766;28;20078;-77
2022/06/14 00:21:17;;;;;;;19.35;7.13;;;6.90;99.90;;;;;;4995770;28;20053;-77
2022/06/14 00:23:43;;;;;;;20.38;7.35;;;6.90;99.90;;;;;;4995602;28;20491;-77
2022/06/14 00:26:11;;;;;;;22.90;7.32;;;7.00;99.90;;;;;;4995495;28;20042;-77
2022/06/14 00:28:38;;;;;;;19.67;6.57;;;7.00;99.90;;;;;;4995275;28;20050;-77
2022/06/14 00:31:28;;;;;;;16.80;6.13;;;7.00;99.90;;;;;;4995667;28;20065;-77
2022/06/14 00:33:54;;;;;;;22.58;7.38;;;7.00;99.90;;;;;;4995519;28;20046;-77
2022/06/14 00:36:34;;;;;;;21.60;6.95;;;7.00;99.90;;;;;;4995432;28;20492;-77
2022/06/14 00:39:08;;;;;;;18.02;6.82;;;7.10;99.90;;;;;;4995440;28;20042;-77
2022/06/14 00:41:41;;;;;;;18.30;6.60;;;7.00;99.90;;;;;;4995681;28;20055;-76
2022/06/14 00:44:13;;;;;;;18.17;7.60;;;6.90;99.90;;;;;;4995715;28;20054;-76
2022/06/14 00:46:48;;;;;;;28.90;7.50;;;6.80;99.90;;;;;;4995320;28;20121;-76
2022/06/14 00:49:19;;;;;;;25.55;9.10;;;6.80;99.90;;;;;;4993639;28;20050;-76
2022/06/14 00:51:52;;;;;;;24.38;6.85;;;6.80;99.90;;;;;;4995310;28;20411;-76
2022/06/14 00:54:30;;;;;;;19.08;6.35;;;6.70;99.90;;;;;;4995405;28;20090;-76
2022/06/14 00:57:18;;;;;;;16.90;7.05;;;6.70;99.90;;;;;;4994854;28;20137;-76
2022/06/14 00:59:50;;;;;;;29.52;7.53;;;6.60;99.90;;;;;;4994471;28;20047;-76
2022/06/14 01:02:31;;;;;;;20.13;8.02;;;6.70;99.90;;;;;;4993308;28;20141;-76
2022/06/14 01:05:01;;;;;;;29.35;7.72;;;7.00;99.90;;;;;;4994965;28;20035;-75
2022/06/14 01:07:32;;;;;;;30.17;8.02;;;6.60;99.90;;;;;;4994673;28;20042;-76
2022/06/14 01:10:06;;;;;;;38.05;7.45;;;6.50;99.90;;;;;;4994615;28;20046;-76
2022/06/14 01:12:35;;;;;;;25.63;7.88;;;6.50;99.90;;;;;;4994970;28;20399;-76
2022/06/14 01:15:29;;;;;;;20.27;7.93;;;6.50;99.90;;;;;;4994696;28;20502;-76
2022/06/14 01:18:07;;;;;;;26.05;7.53;;;6.60;99.90;;;;;;4992008;28;20571;-76
2022/06/14 01:20:34;;;;;;;23.27;7.85;;;6.60;99.90;;;;;;4975033;28;20047;-76
2022/06/14 01:23:01;;;;;;;22.88;8.00;;;6.60;99.90;;;;;;4985641;28;20046;-75
2022/06/14 01:25:30;;;;;;;17.48;7.60;;;6.60;99.90;;;;;;4994222;28;20054;-76
2022/06/14 01:27:57;;;;;;;24.05;7.15;;;6.60;99.90;;;;;;4994227;28;20104;-76
2022/06/14 01:30:31;;;;;;;26.77;8.32;;;6.60;99.90;;;;;;4993893;28;20042;-76
2022/06/14 01:33:00;;;;;;;27.02;8.93;;;6.70;99.90;;;;;;4994617;28;20411;-76
2022/06/14 01:35:32;;;;;;;21.05;8.25;;;6.70;99.90;;;;;;4992846;28;20058;-76
2022/06/14 01:37:59;;;;;;;28.40;8.73;;;6.80;99.90;;;;;;4993781;28;20046;-76
2022/06/14 01:40:40;;;;;;;30.20;7.30;;;6.80;99.90;;;;;;4994810;28;20113;-76
2022/06/14 01:43:37;;;;;;;22.17;7.90;;;6.70;99.90;;;;;;4994691;28;20054;-76
2022/06/14 01:46:10;;;;;;;;;;;6.70;99.90;;;;;;4993099;28;20050;-75
2022/06/14 01:48:49;;;;;;;21.67;8.20;;;6.70;99.90;;;;;;4994470;28;19960;-75
2022/06/14 01:54:20;;;;;;;18.65;8.02;;;6.60;99.90;;;;;;4993946;28;20486;-76
2022/06/14 01:57:09;;;;;;;22.73;7.43;;;6.60;99.90;;;;;;5170361;23;20050;-77
2022/06/14 02:00:00;;;;;;;26.15;7.68;;;6.60;99.90;;;;;;5044699;28;20060;-74
2022/06/14 02:02:32;;;;;;;21.70;8.02;;;6.60;99.90;;;;;;5038216;28;20061;-77
2022/06/14 02:05:25;;;;;;;21.80;8.00;;;6.60;99.90;;;;;;5034788;28;20414;-78
2022/06/14 02:08:03;;;;;;;19.00;7.07;;;6.60;99.90;;;;;;5014962;28;20620;-75
2022/06/14 02:10:39;;;;;;;32.53;8.43;;;6.70;99.90;;;;;;5014717;28;20101;-75
2022/06/14 02:13:12;;;;;;;23.02;8.23;;;6.60;99.90;;;;;;5014854;28;20042;-76
2022/06/14 02:15:42;;;;;;;25.50;9.05;;;6.60;99.90;;;;;;5017910;28;20120;-77
2022/06/14 02:18:31;;;;;;;25.83;8.00;;;6.60;99.90;;;;;;5013203;28;20050;-75
2022/06/14 02:21:11;;;;;;;26.88;8.65;;;6.60;99.90;;;;;;5014226;28;20168;-76
2022/06/14 02:23:51;;;;;;;21.17;8.85;;;6.60;99.90;;;;;;5019180;28;20037;-76
2022/06/14 02:26:22;;;;;;;25.08;8.98;;;6.60;99.90;;;;;;5033608;28;20037;-75
2022/06/14 02:28:53;;;;;;;25.50;8.20;;;6.60;99.90;;;;;;5033307;28;20080;-76
2022/06/14 02:31:30;;;;;;;20.17;7.70;;;6.60;99.90;;;;;;5029300;28;20146;-76
2022/06/14 02:34:13;;;;;;;29.55;9.45;;;6.50;99.90;;;;;;5021247;28;20093;-76
2022/06/14 02:36:48;;;;;;;24.13;9.45;;;6.80;99.90;;;;;;5033528;28;20060;-76
2022/06/14 02:39:16;;;;;;;24.77;8.90;;;6.50;99.90;;;;;;5032368;28;20041;-76
2022/06/14 02:41:47;;;;;;;29.73;8.30;;;6.60;99.90;;;;;;5031944;28;20095;-76
2022/06/14 02:44:30;;;;;;;25.77;8.13;;;6.50;99.90;;;;;;5022787;28;20124;-76
2022/06/14 02:47:24;;;;;;;25.00;7.82;;;6.50;99.90;;;;;;5022169;28;20165;-75
2022/06/14 02:50:07;;;;;;;25.63;9.60;;;6.60;99.90;;;;;;4990883;28;20049;-76
2022/06/14 02:52:54;;;;;;;20.55;8.10;;;6.60;99.90;;;;;;5013844;28;20414;-75
2022/06/14 02:55:37;;;;;;;25.98;8.90;;;6.60;99.90;;;;;;5014536;28;20056;-75
2022/06/14 02:58:14;;;;;;;21.70;8.60;;;6.60;99.90;;;;;;5016206;28;20057;-76
2022/06/14 03:00:44;;;;;;;21.77;8.20;;;6.60;99.90;;;;;;5033299;28;20041;-75
2022/06/14 03:03:24;;;;;;;21.65;7.57;;;6.60;99.90;;;;;;5029031;28;20121;-75
2022/06/14 03:06:06;;;;;;;20.48;8.98;;;6.60;99.90;;;;;;5032253;28;20077;-76
2022/06/14 03:08:37;;;;;;;21.48;8.13;;;6.60;99.90;;;;;;5043485;28;20064;-76
2022/06/14 03:11:55;;;;;;;25.15;8.52;;;6.50;99.90;;;;;;5043327;28;20037;-76
2022/06/14 03:14:25;;;;;;;;;;;6.50;99.90;;;;;;4985768;28;20046;-76
2022/06/14 03:17:09;;;;;;;29.92;8.25;;;6.50;99.90;;;;;;5014145;28;19921;-75
2022/06/14 03:19:34;;;;;;;21.50;8.88;;;6.60;99.90;;;;;;5014030;28;20045;-76
2022/06/14 03:22:11;;;;;;;21.30;8.20;;;6.60;99.90;;;;;;5012822;28;20145;-76
2022/06/14 03:24:48;;;;;;;30.02;8.85;;;6.70;99.90;;;;;;5034519;28;20069;-75
2022/06/14 03:27:35;;;;;;;34.63;8.80;;;6.70;99.90;;;;;;5036612;28;20098;-74
2022/06/14 03:30:15;;;;;;;31.70;8.60;;;6.80;99.90;;;;;;5037472;28;20053;-75
2022/06/14 03:32:56;;;;;;;26.63;9.90;;;6.80;99.90;;;;;;5033058;28;20042;-76
2022/06/14 03:35:30;;;;;;;25.60;9.23;;;6.80;99.90;;;;;;5017542;28;20054;-75
2022/06/14 03:37:59;;;;;;;28.45;8.63;;;6.90;99.90;;;;;;5017765;28;20053;-76
2022/06/14 03:40:25;;;;;;;22.73;7.85;;;6.90;99.90;;;;;;5016809;28;20168;-76
2022/06/14 03:42:52;;;;;;;23.88;8.93;;;7.00;99.90;;;;;;5017921;28;20064;-76
2022/06/14 03:45:23;;;;;;;22.65;8.05;;;7.00;99.90;;;;;;5017423;28;20042;-76
2022/06/14 03:47:48;;;;;;;25.75;9.43;;;7.00;99.90;;;;;;5017657;28;20045;-75
2022/06/14 03:50:29;;;;;;;28.67;8.35;;;7.10;99.90;;;;;;5017587;28;20045;-75
2022/06/14 03:53:22;;;;;;;24.20;9.07;;;7.10;99.90;;;;;;5024815;28;20211;-76
2022/06/14 03:56:09;;;;;;;28.83;8.55;;;7.10;99.90;;;;;;5037475;28;20061;-75
2022/06/14 03:58:58;;;;;;;19.42;8.65;;;7.20;99.90;;;;;;5036696;28;20064;-76
2022/06/14 04:01:30;;;;;;;28.63;8.70;;;7.20;99.90;;;;;;5037061;28;20042;-76
2022/06/14 04:04:33;;;;;;;24.70;9.35;;;7.30;99.90;;;;;;5017893;28;20042;-75
2022/06/14 04:07:21;;;;;;;24.33;9.77;;;7.30;99.90;;;;;;5016922;28;20132;-77
2022/06/14 04:10:08;;;;;;;24.77;8.73;;;7.40;99.90;;;;;;5033490;28;20053;-76
2022/06/14 04:13:01;;;;;;;28.88;8.95;;;7.40;99.90;;;;;;5029260;28;20080;-76
2022/06/14 04:15:44;;;;;;;23.15;9.07;;;7.40;99.90;;;;;;5015003;28;20493;-77
2022/06/14 04:18:48;;;;;;;27.08;9.15;;;7.50;99.90;;;;;;5017150;28;20054;-77
2022/06/14 04:21:32;;;;;;;21.88;8.05;;;7.60;99.90;;;;;;5015211;28;20416;-76
2022/06/14 04:24:30;;;;;;;21.52;8.75;;;7.60;99.90;;;;;;5035574;28;20049;-75
2022/06/14 04:27:11;;;;;;;20.30;8.15;;;7.70;99.90;;;;;;5035338;28;20081;-76
2022/06/14 04:30:03;;;;;;;24.95;8.60;;;7.90;99.90;;;;;;5034483;28;20455;-76
2022/06/14 04:32:35;;;;;;;27.27;8.18;;;8.10;99.90;;;;;;5035214;28;20053;-76
2022/06/14 04:35:11;;;;;;;19.30;8.27;;;8.20;99.90;;;;;;5025414;28;20045;-76
2022/06/14 04:37:40;;;;;;;;;;;8.40;99.90;;;;;;5015325;28;20073;-75
2022/06/14 04:40:13;;;;;;;22.40;8.07;;;8.50;99.90;;;;;;5016422;28;19928;-76
2022/06/14 04:43:04;;;;;;;22.30;8.40;;;8.70;99.90;;;;;;5025141;28;20121;-77
2022/06/14 04:45:55;;;;;;;19.20;7.43;;;8.80;99.90;;;;;;5015820;28;20545;-76
2022/06/14 04:48:31;;;;;;;17.17;7.43;;;8.90;99.90;;;;;;5016182;28;20053;-76
2022/06/14 04:51:10;;;;;;;28.08;8.68;;;9.20;99.90;;;;;;5016303;28;20050;-75
2022/06/14 04:53:49;;;;;;;20.75;6.75;;;9.90;99.90;;;;;;5032058;28;20457;-76
2022/06/14 04:56:23;;;;;;;14.10;6.13;;;11.00;99.90;;;;;;5017053;28;20054;-77
2022/06/14 04:59:07;;;;;;;19.33;5.50;;;11.80;99.90;;;;;;5015633;28;20050;-76
2022/06/14 05:01:45;;;;;;;13.63;4.47;;;12.50;99.90;;;;;;5033636;28;20199;-77
2022/06/14 05:04:14;;;;;;;15.73;3.97;;;13.10;99.90;;;;;;5036450;28;20075;-77
2022/06/14 05:06:57;;;;;;;9.88;3.83;;;13.50;99.90;;;;;;5028158;28;20045;-77
2022/06/14 05:09:29;;;;;;;31.33;4.43;;;13.60;99.90;;;;;;5027556;28;20038;-77
2022/06/14 05:12:22;;;;;;;10.65;3.20;;;13.60;99.90;;;;;;5019479;28;20053;-77
2022/06/14 05:14:59;;;;;;;12.35;3.25;;;13.50;99.90;;;;;;5017426;28;20045;-77
2022/06/14 05:17:57;;;;;;;8.05;3.60;;;13.70;99.90;;;;;;5052084;28;20053;-79
2022/06/14 05:20:26;;;;;;;8.90;2.50;;;14.10;99.90;;;;;;5047248;28;20034;-78
2022/06/14 05:23:11;;;;;;;10.75;3.53;;;14.60;99.90;;;;;;5056492;28;20029;-78
2022/06/14 05:25:57;;;;;;;6.93;2.60;;;15.20;99.90;;;;;;5045618;28;20090;-78
2022/06/14 05:28:38;;;;;;;9.75;2.90;;;15.80;99.90;;;;;;5037022;28;20038;-80
2022/06/14 05:31:38;;;;;;;9.13;2.63;;;15.90;99.90;;;;;;5051616;28;20033;-78
2022/06/14 05:34:17;;;;;;;8.30;3.58;;;16.10;99.90;;;;;;5036199;28;20057;-78
2022/06/14 05:36:57;;;;;;;12.32;2.50;;;16.20;99.90;;;;;;5032033;28;20046;-78
2022/06/14 05:39:47;;;;;;;10.85;3.47;;;17.00;99.90;;;;;;5015989;28;20081;-75
2022/06/14 05:42:22;;;;;;;10.63;3.65;;;17.70;99.90;;;;;;5023419;28;20056;-77
2022/06/14 05:44:51;;;;;;;7.43;2.58;;;18.80;99.90;;;;;;5023154;28;20670;-77
2022/06/14 05:47:26;;;;;;;9.00;2.65;;;19.00;99.90;;;;;;5020564;28;20100;-77
2022/06/14 05:49:57;;;;;;;6.10;1.85;;;19.50;81.60;;;;;;5020328;28;20046;-78
2022/06/14 05:52:33;;;;;;;8.43;3.05;;;19.90;74.60;;;;;;5017446;28;20058;-76
2022/06/14 05:55:05;;;;;;;10.18;2.35;;;20.10;68.90;;;;;;5013055;28;20091;-77
2022/06/14 05:57:36;;;;;;;9.98;2.40;;;20.20;63.80;;;;;;5012413;28;20084;-78
2022/06/14 06:00:17;;;;;;;10.35;2.22;;;20.90;45.30;;;;;;5031455;28;20391;-76
2022/06/14 06:02:58;;;;;;;9.55;1.80;;;21.10;30.40;;;;;;5032015;28;20045;-80
2022/06/14 06:05:30;;;;;;;7.82;2.00;;;21.30;23.80;;;;;;5031705;28;20076;-76
2022/06/14 06:08:05;;;;;;;10.57;2.28;;;21.50;22.30;;;;;;5031929;28;20084;-77
2022/06/14 06:10:34;;;;;;;9.57;2.28;;;21.30;14.90;;;;;;5031572;28;20128;-77
2022/06/14 06:13:08;;;;;;;10.27;1.92;;;21.40;16.30;;;;;;5031451;28;20084;-77
2022/06/14 06:16:06;;;;;;;8.90;2.17;;;21.70;11.10;;;;;;5033130;28;20544;-76
2022/06/14 06:18:58;;;;;;;7.85;1.95;;;21.80;11.00;;;;;;5015855;28;20087;-77
2022/06/14 06:21:53;;;;;;;7.55;2.17;;;22.10;3.80;;;;;;5031735;28;20049;-76
2022/06/14 06:24:39;;;;;;;6.55;1.83;;;22.90;1.00;;;;;;5031947;28;20055;-75
2022/06/14 06:27:10;;;;;;;6.65;2.50;;;21.90;1.00;;;;;;5032706;28;20449;-76
2022/06/14 06:29:43;;;;;;;10.75;1.85;;;21.70;1.00;;;;;;5032930;28;20048;-76
2022/06/14 06:32:09;;;;;;;8.10;1.75;;;21.90;1.00;;;;;;5033248;28;20056;-76
2022/06/14 06:34:36;;;;;;;9.88;1.80;;;21.90;1.00;;;;;;5032152;28;20120;-75
2022/06/14 06:37:01;;;;;;;14.77;1.98;;;21.90;1.00;;;;;;5032735;28;20048;-76
2022/06/14 06:39:49;;;;;;;6.47;1.90;;;21.90;1.00;;;;;;5032732;28;20053;-75
2022/06/14 06:42:30;;;;;;;7.82;1.90;;;22.20;1.00;;;;;;5032233;28;20501;-76
2022/06/14 06:45:15;;;;;;;5.82;1.48;;;22.50;1.00;;;;;;5032419;28;20507;-76
2022/06/14 06:47:40;;;;;;;9.50;1.85;;;22.50;1.00;;;;;;5032063;28;20124;-76
2022/06/14 06:50:06;;;;;;;9.52;1.83;;;22.50;1.00;;;;;;5034451;28;20128;-76
2022/06/14 06:52:53;;;;;;;8.32;1.70;;;23.00;1.00;;;;;;5032969;28;20077;-76
2022/06/14 06:55:41;;;;;;;9.65;1.70;;;23.60;1.00;;;;;;5032731;28;20401;-76
2022/06/14 06:58:27;;;;;;;6.70;2.25;;;24.20;1.00;;;;;;5031231;28;20852;-76
2022/06/14 07:00:56;;;;;;;6.70;2.03;;;23.80;1.00;;;;;;5015001;28;20056;-76
2022/06/14 07:03:45;;;;;;;6.72;1.65;;;23.90;1.00;;;;;;5037323;28;20049;-76
2022/06/14 07:06:19;;;;;;;8.82;1.75;;;24.20;1.00;;;;;;5035799;28;20050;-77
2022/06/14 07:08:58;;;;;;;6.55;1.90;;;22.90;1.00;;;;;;5035497;28;20072;-76
2022/06/14 07:11:30;;;;;;;7.68;1.73;;;22.60;1.00;;;;;;5035516;28;20050;-76
2022/06/14 07:14:03;;;;;;;5.35;1.50;;;22.20;1.00;;;;;;5036739;28;20046;-76
2022/06/14 07:16:36;;;;;;;8.32;1.92;;;22.10;1.00;;;;;;5036917;28;20383;-76
2022/06/14 07:19:42;;;;;;;7.53;1.60;;;21.60;1.00;;;;;;5036424;28;20046;-75
2022/06/14 07:22:24;;;;;;;8.30;1.65;;;21.40;1.00;;;;;;5030968;28;20053;-76
2022/06/14 07:25:08;;;;;;;5.72;1.88;;;21.00;1.00;;;;;;5036555;28;20049;-75
2022/06/14 07:27:42;;;;;;;11.32;1.65;;;20.10;1.00;;;;;;5036709;28;20140;-77
2022/06/14 07:30:11;;;;;;;7.03;1.65;;;20.00;1.00;;;;;;5018934;28;20120;-76
2022/06/14 07:32:46;;;;;;;7.78;1.25;;;20.30;1.00;;;;;;5036438;28;20081;-76
2022/06/14 07:35:19;;;;;;;8.15;1.65;;;20.50;1.00;;;;;;5036175;28;20073;-77
2022/06/14 07:38:02;;;;;;;7.72;2.42;;;21.80;1.00;;;;;;5036172;28;20071;-77
2022/06/14 07:40:34;;;;;;;8.65;1.85;;;22.60;1.00;;;;;;5036405;28;20068;-76
2022/06/14 07:43:28;;;;;;;7.85;1.77;;;23.90;1.00;;;;;;5036200;28;20124;-76
2022/06/14 07:45:56;;;;;;;9.88;2.00;;;24.40;1.00;;;;;;5029356;28;20571;-76
2022/06/14 07:48:34;;;;;;;5.45;1.52;;;24.10;1.00;;;;;;5035949;28;20472;-76
2022/06/14 07:51:25;;;;;;;10.43;2.20;;;22.70;1.00;;;;;;5036727;28;20049;-76
2022/06/14 07:54:05;;;;;;;6.57;2.25;;;22.90;1.00;;;;;;5036153;28;20045;-76
2022/06/14 07:56:38;;;;;;;8.30;1.70;;;22.80;1.00;;;;;;5036241;28;20064;-75
2022/06/14 07:59:29;;;;;;;7.18;1.35;;;23.40;1.00;;;;;;5036852;28;20091;-76
2022/06/14 08:02:03;;;;;;;6.78;1.77;;;24.90;1.00;;;;;;5036119;28;20067;-76
2022/06/14 08:04:45;;;;;;;5.78;1.50;;;24.80;1.00;;;;;;5035855;28;20045;-75
2022/06/14 08:07:16;;;;;;;6.35;1.75;;;25.40;1.00;;;;;;5035897;28;20052;-77
2022/06/14 08:09:41;;;;;;;5.82;1.73;;;26.00;1.00;;;;;;5035721;28;20124;-76
2022/06/14 08:12:16;;;;;;;5.93;1.67;;;26.40;1.00;;;;;;5034431;28;20132;-77
2022/06/14 08:14:58;;;;;;;5.83;1.30;;;25.50;1.00;;;;;;5036041;28;20409;-77
2022/06/14 08:17:38;;;;;;;4.97;1.38;;;24.50;1.00;;;;;;5034756;28;20041;-75
2022/06/14 08:20:11;;;;;;;9.02;1.90;;;24.50;1.00;;;;;;5035760;28;20052;-76
2022/06/14 08:22:42;;;;;;;4.88;1.17;;;25.30;1.00;;;;;;5035612;28;20068;-75
2022/06/14 08:25:17;;;;;;;5.68;1.23;;;26.10;1.00;;;;;;5035327;28;20042;-76
2022/06/14 08:27:57;;;;;;;5.88;1.83;;;26.50;1.00;;;;;;5035632;28;20064;-76
2022/06/14 08:30:49;;;;;;;8.93;1.83;;;25.50;1.00;;;;;;5035205;28;20563;-74
2022/06/14 08:33:31;;;;;;;5.22;1.50;;;24.40;1.00;;;;;;5029489;28;20441;-75
2022/06/14 08:36:04;;;;;;;9.73;1.70;;;23.20;1.00;;;;;;5034999;28;20054;-77
2022/06/14 08:38:45;;;;;;;7.63;1.40;;;22.20;1.00;;;;;;5035116;28;20092;-76
2022/06/14 08:41:39;;;;;;;9.35;2.03;;;21.40;1.00;;;;;;5017362;28;20053;-75
2022/06/14 08:44:22;;;;;;;5.18;1.05;;;21.50;1.00;;;;;;5033943;28;20440;-75
2022/06/14 08:47:28;;;;;;;5.47;1.27;;;22.90;1.00;;;;;;5033742;28;20513;-74
2022/06/14 08:50:08;;;;;;;4.25;1.10;;;24.50;1.00;;;;;;5033599;28;20135;-77
2022/06/14 08:53:04;;;;;;;5.03;1.10;;;26.00;1.00;;;;;;5033588;28;20461;-76
2022/06/14 08:55:35;;;;;;;5.03;1.20;;;26.40;1.00;;;;;;5035264;28;20099;-75
2022/06/14 08:58:17;;;;;;;7.13;1.55;;;25.30;1.00;;;;;;5035059;28;20069;-76
2022/06/14 09:01:14;;;;;;;5.78;1.30;;;24.50;1.00;;;;;;5034893;28;20077;-77
2022/06/14 09:04:14;;;;;;;7.45;1.23;;;24.70;1.00;;;;;;5035565;28;20041;-77
2022/06/14 09:06:59;;;;;;;4.72;1.33;;;26.00;1.00;;;;;;5042653;28;20127;-74
2022/06/14 09:09:57;;;;;;;3.88;1.25;;;26.20;1.00;;;;;;5044296;28;20041;-75
2022/06/14 09:12:26;;;;;;;5.05;1.52;;;23.50;1.00;;;;;;5044042;28;20045;-76
2022/06/14 09:15:16;;;;;;;5.93;1.20;;;22.70;1.00;;;;;;5041548;28;20056;-75
2022/06/14 09:18:11;;;;;;;7.63;1.25;;;21.50;1.00;;;;;;5044262;28;20049;-76
2022/06/14 09:21:16;;;;;;;5.15;1.23;;;21.20;1.00;;;;;;5040105;28;20077;-76
2022/06/14 09:24:00;;;;;;;4.65;1.20;;;21.10;1.00;;;;;;5028788;28;20041;-76
2022/06/14 09:26:31;;;;;;;5.07;1.30;;;22.60;1.00;;;;;;5019850;28;20500;-74
2022/06/14 09:29:06;;;;;;;3.85;1.25;;;24.40;1.00;;;;;;5018858;28;20109;-76
2022/06/14 09:31:55;;;;;;;6.32;1.23;;;26.10;1.00;;;;;;4999399;28;20061;-77
2022/06/14 09:34:32;;;;;;;4.55;1.17;;;27.50;1.00;;;;;;5011961;28;20084;-77
2022/06/14 09:37:31;;;;;;;4.57;1.20;;;28.10;1.00;;;;;;5010542;28;20038;-76
2022/06/14 09:40:00;;;;;;;5.75;1.52;;;27.40;1.00;;;;;;5011693;28;20041;-76
2022/06/14 09:42:56;;;;;;;6.97;1.42;;;28.30;1.00;;;;;;5011745;28;20403;-76
2022/06/14 09:45:41;;;;;;;5.70;1.42;;;28.20;1.00;;;;;;5011868;28;20067;-76
2022/06/14 09:48:27;;;;;;;4.43;1.40;;;28.00;1.00;;;;;;5017951;28;20124;-76
2022/06/14 09:51:07;;;;;;;3.42;1.00;;;27.80;1.00;;;;;;5015182;28;20133;-76
2022/06/14 09:54:00;;;;;;;6.45;0.98;;;27.70;1.00;;;;;;5011146;28;20651;-75
2022/06/14 09:56:57;;;;;;;6.72;1.40;;;27.80;1.00;;;;;;5011254;28;20046;-76
2022/06/14 09:59:31;;;;;;;5.25;1.40;;;26.60;1.00;;;;;;5011302;28;20053;-76
2022/06/14 10:02:15;;;;;;;5.00;1.20;;;26.50;1.00;;;;;;5011919;28;20042;-76
2022/06/14 10:04:46;;;;;;;4.82;1.38;;;26.90;1.00;;;;;;5014509;28;20124;-75
2022/06/14 10:07:38;;;;;;;4.53;1.30;;;25.70;1.00;;;;;;5015170;28;20049;-75
2022/06/14 10:10:25;;;;;;;6.82;1.92;;;25.70;1.00;;;;;;5014871;28;20038;-76
2022/06/14 10:13:09;;;;;;;7.13;1.60;;;25.00;1.00;;;;;;5014479;28;20050;-76
2022/06/14 10:15:56;;;;;;;4.55;0.82;;;24.40;1.00;;;;;;5014112;28;20077;-74
2022/06/14 10:19:07;;;;;;;6.30;1.40;;;24.30;1.00;;;;;;5014130;28;20057;-76
2022/06/14 10:21:53;;;;;;;6.00;1.20;;;24.70;1.00;;;;;;5014084;28;20141;-76
2022/06/14 10:24:40;;;;;;;8.20;1.77;;;25.20;1.00;;;;;;5014499;28;20569;-75
2022/06/14 10:30:19;;;;;;;3.80;0.77;;;24.20;1.00;;;;;;5014198;28;20172;-75
2022/06/14 10:32:45;;;;;;;3.60;1.10;;;23.90;1.00;;;;;;5014099;28;20401;-75
2022/06/14 10:35:21;;;;;;;3.70;1.00;;;23.60;1.00;;;;;;5013874;28;20064;-74
2022/06/14 10:38:12;;;;;;;4.10;1.17;;;22.70;1.00;;;;;;5014237;28;20124;-74
2022/06/14 10:41:00;;;;;;;5.07;1.33;;;22.60;1.00;;;;;;5014296;28;20111;-74
2022/06/14 10:43:52;;;;;;;6.78;1.40;;;23.00;1.00;;;;;;5013678;28;20117;-75
2022/06/14 10:46:39;;;;;;;3.65;1.00;;;23.10;1.00;;;;;;5013978;28;20091;-74
2022/06/14 10:49:10;;;;;;;4.72;0.90;;;23.20;1.00;;;;;;5013890;28;20088;-76
2022/06/14 10:51:55;;;;;;;6.55;1.48;;;23.30;1.00;;;;;;5012656;28;20050;-75
2022/06/14 10:54:39;;;;;;;3.72;1.02;;;23.80;1.00;;;;;;5013826;28;20054;-75
2022/06/14 10:57:27;;;;;;;5.22;0.80;;;23.60;1.00;;;;;;5012123;28;20057;-76
2022/06/14 11:00:18;;;;;;;7.60;1.80;;;23.40;1.00;;;;;;5013480;28;20049;-75
2022/06/14 11:02:49;;;;;;;4.28;1.00;;;23.40;1.00;;;;;;5013648;28;20045;-76
2022/06/14 11:06:02;;;;;;;4.05;1.10;;;23.50;1.00;;;;;;5013665;28;20042;-75
2022/06/14 11:08:35;;;;;;;3.58;1.08;;;23.60;1.00;;;;;;4972289;28;20507;-75
2022/06/14 11:11:44;;;;;;;3.75;1.10;;;23.60;1.00;;;;;;4972564;28;20053;-75
2022/06/14 11:14:22;;;;;;;8.27;1.20;;;23.30;1.00;;;;;;5008744;28;20046;-75
2022/06/14 11:17:20;;;;;;;2.67;1.35;;;22.30;1.00;;;;;;5013714;28;20524;-74
2022/06/14 11:20:10;;;;;;;4.57;1.20;;;22.30;1.00;;;;;;4998008;28;20050;-76
2022/06/14 11:22:43;;;;;;;6.68;1.13;;;22.30;1.00;;;;;;5014022;28;20057;-76
2022/06/14 11:25:51;;;;;;;3.90;1.33;;;22.60;1.00;;;;;;5014460;28;20056;-75
2022/06/14 11:29:01;;;;;;;8.65;2.95;;;22.60;1.00;;;;;;5011337;28;20426;-73
2022/06/14 11:32:02;;;;;;;2.33;0.80;;;22.80;1.00;;;;;;4995939;28;20070;-75
2022/06/14 11:34:49;;;;;;;4.07;1.38;;;23.10;1.00;;;;;;5013897;28;20462;-75
2022/06/14 11:37:35;;;;;;;7.50;1.45;;;23.00;1.00;;;;;;5013725;28;20092;-75
2022/06/14 11:40:24;;;;;;;3.95;1.10;;;22.90;1.00;;;;;;5013318;28;20486;-75
2022/06/14 11:43:11;;;;;;;3.47;1.00;;;23.30;1.00;;;;;;5013607;28;20053;-76
2022/06/14 11:45:52;;;;;;;10.32;4.22;;;23.50;1.00;;;;;;5014096;28;20076;-75
2022/06/14 11:48:34;;;;;;;3.00;1.10;;;23.90;1.00;;;;;;5017549;28;20097;-75
2022/06/14 11:51:24;;;;;;;7.13;1.50;;;24.10;1.00;;;;;;5017440;28;20049;-76
2022/06/14 11:54:21;;;;;;;3.70;1.15;;;24.50;1.00;;;;;;5019837;28;20049;-76
2022/06/14 11:57:19;;;;;;;;;;;24.70;1.00;;;;;;5020935;28;20046;-75
2022/06/14 11:59:59;;;;;;;2.70;1.08;;;24.70;1.00;;;;;;5007250;28;19921;-77
2022/06/14 12:02:43;;;;;;;3.58;1.05;;;24.90;1.00;;;;;;5018113;28;20077;-75
2022/06/14 12:05:48;;;;;;;3.20;1.25;;;25.30;1.00;;;;;;5018385;28;20046;-76
2022/06/14 12:08:50;;;;;;;5.53;1.23;;;25.00;1.00;;;;;;4960800;28;20054;-75
2022/06/14 12:11:45;;;;;;;2.22;0.88;;;25.60;1.00;;;;;;5017601;28;20046;-76
2022/06/14 12:14:36;;;;;;;3.00;1.13;;;26.20;1.00;;;;;;5016581;28;20137;-76
2022/06/14 12:17:26;;;;;;;2.75;0.80;;;26.90;1.00;;;;;;5015570;28;20092;-75
2022/06/14 12:20:14;;;;;;;6.03;1.02;;;28.20;1.00;;;;;;5015597;28;20054;-74
2022/06/14 12:23:07;;;;;;;5.72;1.15;;;28.20;1.00;;;;;;5015596;28;20057;-76
2022/06/14 12:28:48;;;;;;;5.22;1.20;;;28.80;1.00;;;;;;5014740;28;20285;-75
2022/06/14 12:31:39;;;;;;;6.50;1.30;;;28.50;1.00;;;;;;5015478;28;20050;-75
2022/06/14 12:34:29;;;;;;;5.15;1.27;;;28.20;1.00;;;;;;5014442;28;20147;-74
2022/06/14 12:37:33;;;;;;;3.55;1.13;;;28.80;1.00;;;;;;5015646;28;20064;-76
2022/06/14 12:40:10;;;;;;;5.55;1.00;;;28.50;1.00;;;;;;5009486;28;20054;-75
2022/06/14 12:42:42;;;;;;;4.90;1.27;;;27.50;1.00;;;;;;5015473;28;20060;-76
2022/06/14 12:45:27;;;;;;;5.05;1.38;;;28.00;1.00;;;;;;5015305;28;20049;-76
2022/06/14 12:48:05;;;;;;;4.97;1.33;;;26.70;1.00;;;;;;5015086;28;20053;-74
2022/06/14 12:50:43;;;;;;;4.50;1.13;;;26.50;1.00;;;;;;5015118;28;20046;-75
2022/06/14 12:53:44;;;;;;;4.45;1.25;;;25.20;1.00;;;;;;5015318;28;20050;-75
2022/06/14 12:56:33;;;;;;;3.40;1.08;;;25.20;1.00;;;;;;5012759;28;20104;-75
2022/06/14 12:59:25;;;;;;;11.13;1.33;;;24.50;1.00;;;;;;5014433;28;20536;-74
2022/06/14 13:02:03;;;;;;;3.90;1.13;;;24.40;1.00;;;;;;5015404;28;20069;-75
2022/06/14 13:05:04;;;;;;;6.88;1.20;;;24.00;1.00;;;;;;5014905;28;20048;-75
2022/06/14 13:07:53;;;;;;;7.18;1.40;;;23.80;1.00;;;;;;5001842;28;20132;-75
2022/06/14 13:10:36;;;;;;;4.53;1.08;;;23.10;1.00;;;;;;5014846;28;20119;-75
2022/06/14 13:13:34;;;;;;;6.80;1.58;;;23.00;1.00;;;;;;5015053;28;20073;-76
2022/06/14 13:16:36;;;;;;;5.53;1.42;;;22.90;1.00;;;;;;5014982;28;20049;-74
2022/06/14 13:19:09;;;;;;;4.85;1.35;;;22.90;1.00;;;;;;5014167;28;20101;-74
2022/06/14 13:21:43;;;;;;;6.97;1.48;;;23.10;1.00;;;;;;5016784;28;20046;-75
2022/06/14 13:24:47;;;;;;;2.45;0.85;;;23.10;1.00;;;;;;5017499;28;20060;-76
2022/06/14 13:27:58;;;;;;;5.40;1.33;;;23.50;1.00;;;;;;5015944;28;20042;-74
2022/06/14 13:30:50;;;;;;;5.47;1.42;;;23.30;1.00;;;;;;5017256;28;20112;-75
2022/06/14 13:33:30;;;;;;;5.72;1.52;;;23.50;1.00;;;;;;5030374;28;20042;-75
2022/06/14 13:36:17;;;;;;;4.88;1.33;;;23.70;1.00;;;;;;5030831;28;20050;-75
2022/06/14 13:39:27;;;;;;;5.30;1.17;;;24.00;1.00;;;;;;5029681;28;20042;-75
2022/06/14 13:42:03;;;;;;;4.70;1.40;;;24.00;1.00;;;;;;5024954;28;20046;-74
2022/06/14 13:44:41;;;;;;;4.30;1.38;;;24.50;1.00;;;;;;5028532;28;20042;-75
2022/06/14 13:47:24;;;;;;;3.92;1.30;;;24.90;1.00;;;;;;5022355;28;20057;-75
2022/06/14 13:50:04;;;;;;;7.50;1.30;;;24.60;1.00;;;;;;5015059;28;20052;-75
2022/06/14 13:52:39;;;;;;;7.15;1.23;;;24.40;1.00;;;;;;5014785;28;20050;-75
2022/06/14 13:55:13;;;;;;;4.85;1.02;;;25.60;1.00;;;;;;5014483;28;20168;-74
2022/06/14 13:57:51;;;;;;;3.77;1.20;;;24.90;1.00;;;;;;5014084;28;20050;-74
2022/06/14 14:00:33;;;;;;;3.58;0.88;;;25.00;1.00;;;;;;5014053;28;20295;-76
2022/06/14 14:03:23;;;;;;;2.97;1.05;;;25.30;1.00;;;;;;5013994;28;20057;-75
2022/06/14 14:06:01;;;;;;;7.43;1.25;;;26.20;1.00;;;;;;5014078;28;20045;-75
2022/06/14 14:08:40;;;;;;;4.97;1.25;;;26.80;1.00;;;;;;5013562;28;20048;-74
2022/06/14 14:11:11;;;;;;;10.18;1.20;;;26.50;1.00;;;;;;5013641;28;20045;-75
2022/06/14 14:13:39;;;;;;;8.23;1.35;;;27.10;1.00;;;;;;5013654;28;20052;-74
2022/06/14 14:16:14;;;;;;;3.63;1.27;;;26.80;1.00;;;;;;5013948;28;20042;-75